Time;durP1;ratioP1;P1;durP2;ratioP2;P2;SDS_P1;SDS_P2;PMS_P1;PMS_P2;Temp;Humidity;BMP_temperature;BMP_pressure;BME280_temperature;BME280_humidity;BME280_pressure;Samples;Min_cycle;Max_cycle;Signal;HPM_P1;HPM_P2
2022/04/14 00:00:34;;;;;;;;;;;;;;;26.87;36.64;94244.13;4966731;28;9118;-60
2022/04/14 00:03:00;;;;;;;;;;;;;;;26.85;36.93;94246.66;4979045;28;9462;-60
2022/04/14 00:05:27;;;;;;;;;;;;;;;26.85;36.67;94252.94;4954689;28;9067;-60
2022/04/14 00:07:53;;;;;;;;;;;;;;;26.83;37.53;94244.44;4986321;28;7417;-60
2022/04/14 00:10:19;;;;;;;;;;;;;;;26.81;37.42;94243.47;4964015;28;8746;-60
2022/04/14 00:12:48;;;;;;;;;;;;;;;26.82;36.76;94240.19;4985815;28;9281;-60
2022/04/14 00:15:13;;;;;;;;;;;;;;;26.81;36.89;94240.72;4971328;28;7856;-60
2022/04/14 00:17:40;;;;;;;;;;;;;;;26.81;37.13;94243.47;4966016;28;8957;-60
2022/04/14 00:20:09;;;;;;;;;;;;;;;26.79;36.55;94243.25;4965106;28;8791;-60
2022/04/14 00:22:54;;;;;;;;;;;;;;;26.78;37.38;94244.50;4976234;28;9128;-60
2022/04/14 00:25:27;;;;;;;;;;;;;;;26.78;37.50;94239.72;5013773;28;7236;-60
2022/04/14 00:27:53;;;;;;;;;;;;;;;26.76;36.99;94234.00;5053184;28;7276;-60
2022/04/14 00:30:21;;;;;;;;;;;;;;;26.74;36.87;94230.25;5026963;28;9080;-60
2022/04/14 00:32:55;;;;;;;;;;;;;;;26.74;37.23;94227.50;5042940;28;6995;-60
2022/04/14 00:35:25;;;;;;;;;;;;;;;26.73;37.08;94235.03;5052728;28;7270;-60
2022/04/14 00:37:54;;;;;;;;;;;;;;;26.74;37.40;94236.53;5048051;28;9324;-60
2022/04/14 00:40:28;;;;;;;;;;;;;;;26.72;37.50;94238.28;5050737;28;9290;-60
2022/04/14 00:43:27;;;;;;;;;;;;;;;26.72;37.34;94228.00;5049704;28;8569;-60
2022/04/14 00:46:01;;;;;;;;;;;;;;;26.71;36.85;94236.78;5037328;28;8859;-60
2022/04/14 00:48:33;;;;;;;;;;;;;;;26.72;36.81;94236.28;5040777;28;7220;-60
2022/04/14 00:51:10;;;;;;;;;;;;;;;26.72;36.53;94230.00;5044394;28;7058;-60
2022/04/14 00:53:46;;;;;;;;;;;;;;;26.70;36.74;94232.56;5042844;28;7257;-60
2022/04/14 00:56:46;;;;;;;;;;;;;;;26.69;37.66;94231.03;5047007;28;7392;-60
2022/04/14 00:59:24;;;;;;;;;;;;;;;26.66;37.07;94237.63;5000047;28;7037;-60
2022/04/14 01:01:55;;;;;;;;;;;;;;;26.66;37.43;94229.34;4987149;28;6984;-60
2022/04/14 01:04:32;;;;;;;;;;;;;;;26.66;37.46;94237.63;4982751;28;9317;-60
2022/04/14 01:06:58;;;;;;;;;;;;;;;26.64;37.23;94232.59;4972155;28;7027;-60
2022/04/14 01:09:26;;;;;;;;;;;;;;;26.65;37.15;94238.88;4979487;28;8741;-60
2022/04/14 01:11:54;;;;;;;;;;;;;;;26.64;36.66;94242.91;4973449;28;9028;-60
2022/04/14 01:14:24;;;;;;;;;;;;;;;26.64;36.45;94245.69;4978004;28;8669;-60
2022/04/14 01:17:03;;;;;;;;;;;;;;;26.64;37.15;94245.69;4973088;28;9066;-60
2022/04/14 01:19:40;;;;;;;;;;;;;;;26.64;36.84;94245.69;4975929;28;6865;-60
2022/04/14 01:22:51;;;;;;;;;;;;;;;26.64;36.66;94248.44;4975747;28;9100;-60
2022/04/14 01:25:46;;;;;;;;;;;;;;;26.62;37.65;94243.41;4928319;29;7006;-60
2022/04/14 01:28:31;;;;;;;;;;;;;;;26.60;36.91;94243.19;4882390;29;6972;-60
2022/04/14 01:31:13;;;;;;;;;;;;;;;26.63;37.09;94255.97;4895485;29;9419;-60
2022/04/14 01:33:48;;;;;;;;;;;;;;;26.61;37.34;94257.75;4882000;29;8198;-60
2022/04/14 01:36:50;;;;;;;;;;;;;;;26.60;36.50;94262.50;4933651;29;9341;-60
2022/04/14 01:39:17;;;;;;;;;;;;;;;26.60;36.88;94256.25;4909697;29;7206;-60
2022/04/14 01:41:44;;;;;;;;;;;;;;;26.59;36.60;94255.50;4910673;29;7275;-60
2022/04/14 01:44:29;;;;;;;;;;;;;;;26.59;37.48;94252.75;4912741;29;9289;-60
2022/04/14 01:47:06;;;;;;;;;;;;;;;26.59;36.63;94260.28;4914711;29;9172;-60
2022/04/14 01:49:47;;;;;;;;;;;;;;;26.57;37.03;94258.03;4914520;29;7467;-60
2022/04/14 01:52:36;;;;;;;;;;;;;;;26.57;37.52;94258.03;4913099;29;8606;-60
2022/04/14 01:55:03;;;;;;;;;;;;;;;26.56;36.47;94256.53;4934028;28;7010;-60
2022/04/14 01:57:30;;;;;;;;;;;;;;;26.56;36.94;94255.78;4933808;28;7265;-60
2022/04/14 02:00:00;;;;;;;;;;;;;;;26.55;37.33;94263.34;4938861;28;7221;-60
2022/04/14 02:02:29;;;;;;;;;;;;;;;26.54;36.63;94263.84;4934526;28;7219;-60
2022/04/14 02:05:05;;;;;;;;;;;;;;;26.52;36.69;94267.13;4953237;28;9104;-60
2022/04/14 02:07:31;;;;;;;;;;;;;;;26.52;37.06;94272.63;4969092;28;8939;-60
2022/04/14 02:09:57;;;;;;;;;;;;;;;26.50;37.05;94280.69;4990103;28;9716;-60
2022/04/14 02:12:29;;;;;;;;;;;;;;;26.52;36.39;94282.91;5003924;28;7433;-60
2022/04/14 02:14:57;;;;;;;;;;;;;;;26.51;36.70;94278.69;5048792;28;9653;-60
2022/04/14 02:17:25;;;;;;;;;;;;;;;26.51;37.05;94281.44;5048185;28;9425;-60
2022/04/14 02:19:51;;;;;;;;;;;;;;;26.52;37.16;94289.19;5051725;28;7615;-60
2022/04/14 02:22:46;;;;;;;;;;;;;;;26.51;36.55;94284.94;5040830;28;9039;-60
2022/04/14 02:25:20;;;;;;;;;;;;;;;26.51;36.50;94290.44;5048667;28;8953;-60
2022/04/14 02:27:46;;;;;;;;;;;;;;;26.47;37.29;94289.28;5047405;28;7330;-60
2022/04/14 02:30:35;;;;;;;;;;;;;;;26.50;36.73;94293.72;5025007;28;9378;-60
2022/04/14 02:33:08;;;;;;;;;;;;;;;26.48;36.95;94299.03;5047548;28;7251;-60
2022/04/14 02:35:44;;;;;;;;;;;;;;;26.45;37.08;94284.25;5054637;28;7062;-60
2022/04/14 02:38:13;;;;;;;;;;;;;;;26.46;36.64;94291.28;5036778;28;6998;-60
2022/04/14 02:41:10;;;;;;;;;;;;;;;26.45;37.49;94295.28;5032832;28;7065;-60
2022/04/14 02:43:52;;;;;;;;;;;;;;;26.43;36.39;94286.78;4946924;28;9074;-60
2022/04/14 02:46:34;;;;;;;;;;;;;;;26.44;36.53;94282.03;4941914;29;7030;-60
2022/04/14 02:49:21;;;;;;;;;;;;;;;26.43;36.55;94288.78;4957626;28;9183;-60
2022/04/14 02:52:21;;;;;;;;;;;;;;;26.42;37.33;94287.31;4958255;28;9176;-60
2022/04/14 02:54:47;;;;;;;;;;;;;;;26.42;36.38;94292.81;4916968;29;9176;-60
2022/04/14 02:57:15;;;;;;;;;;;;;;;26.40;37.20;94293.34;4926776;29;8914;-60
2022/04/14 02:59:43;;;;;;;;;;;;;;;26.41;37.41;94289.31;4917611;29;8268;-60
2022/04/14 03:02:13;;;;;;;;;;;;;;;26.41;36.74;94291.31;4910520;29;9112;-60
2022/04/14 03:04:39;;;;;;;;;;;;;;;26.41;36.47;94292.06;4902506;29;7258;-60
2022/04/14 03:07:08;;;;;;;;;;;;;;;26.39;37.32;94291.09;4910731;29;7245;-60
2022/04/14 03:09:34;;;;;;;;;;;;;;;26.37;36.93;94294.38;4902161;29;9133;-60
2022/04/14 03:12:00;;;;;;;;;;;;;;;26.39;37.16;94297.38;4917481;29;7261;-60
2022/04/14 03:14:26;;;;;;;;;;;;;;;26.39;37.16;94294.59;4900046;29;7331;-60
2022/04/14 03:17:22;;;;;;;;;;;;;;;26.38;36.70;94295.13;4917205;29;9143;-60
2022/04/14 03:20:05;;;;;;;;;;;;;;;26.37;36.99;94294.38;4910421;28;6997;-60
2022/04/14 03:22:41;;;;;;;;;;;;;;;26.37;36.68;94293.63;4936376;28;7482;-60
2022/04/14 03:25:11;;;;;;;;;;;;;;;26.37;36.73;94299.13;4949710;28;8840;-60
2022/04/14 03:27:46;;;;;;;;;;;;;;;26.36;36.71;94297.66;4956908;28;9271;-60
2022/04/14 03:30:12;;;;;;;;;;;;;;;26.35;37.04;94296.16;4960175;28;9333;-60
2022/04/14 03:32:59;;;;;;;;;;;;;;;26.35;36.47;94307.19;4977070;28;9098;-60
2022/04/14 03:35:35;;;;;;;;;;;;;;;26.33;37.18;94309.72;4984353;28;9009;-60
2022/04/14 03:38:03;;;;;;;;;;;;;;;26.34;37.34;94311.94;4977407;28;8757;-59
2022/04/14 03:41:05;;;;;;;;;;;;;;;26.32;36.33;94300.69;4989861;28;9178;-59
2022/04/14 03:43:35;;;;;;;;;;;;;;;26.32;36.62;94314.47;4940525;28;7030;-60
2022/04/14 03:46:03;;;;;;;;;;;;;;;26.33;37.26;94315.22;4924920;29;7877;-59
2022/04/14 03:48:58;;;;;;;;;;;;;;;26.30;36.33;94310.75;4951571;28;7050;-60
2022/04/14 03:51:25;;;;;;;;;;;;;;;26.28;37.30;94308.50;4921664;29;9107;-59
2022/04/14 03:54:22;;;;;;;;;;;;;;;26.31;36.27;94320.53;4920014;28;9144;-60
2022/04/14 03:56:49;;;;;;;;;;;;;;;26.30;36.88;94319.00;4927950;28;9204;-60
2022/04/14 03:59:33;;;;;;;;;;;;;;;26.27;36.64;94318.06;4934030;28;9068;-61
2022/04/14 04:02:01;;;;;;;;;;;;;;;26.29;37.09;94321.03;4940739;28;7253;-60
2022/04/14 04:04:31;;;;;;;;;;;;;;;26.28;36.46;94321.53;4939364;28;9088;-59
2022/04/14 04:06:59;;;;;;;;;;;;;;;26.28;36.46;94329.81;4951943;28;8794;-59
2022/04/14 04:09:26;;;;;;;;;;;;;;;26.29;36.69;94332.06;4932468;28;7247;-59
2022/04/14 04:11:53;;;;;;;;;;;;;;;26.27;36.71;94326.34;4930780;29;7335;-59
2022/04/14 04:14:22;;;;;;;;;;;;;;;26.27;36.91;94320.06;4941005;28;6971;-60
2022/04/14 04:16:51;;;;;;;;;;;;;;;26.26;36.47;94319.31;4937057;28;8274;-60
2022/04/14 04:19:17;;;;;;;;;;;;;;;26.25;35.94;94317.84;4948991;28;6889;-60
2022/04/14 04:21:48;;;;;;;;;;;;;;;26.27;36.19;94333.84;4956653;28;7237;-60
2022/04/14 04:24:37;;;;;;;;;;;;;;;26.24;37.11;94332.13;4973007;28;7210;-60
2022/04/14 04:27:18;;;;;;;;;;;;;;;26.22;37.20;94340.16;4968824;28;7198;-60
2022/04/14 04:29:46;;;;;;;;;;;;;;;26.22;36.43;94332.63;4966734;28;7259;-60
2022/04/14 04:32:35;;;;;;;;;;;;;;;26.24;37.16;94335.63;4960086;28;9111;-60
2022/04/14 04:35:04;;;;;;;;;;;;;;;26.24;36.91;94346.66;5057779;28;7724;-60
2022/04/14 04:37:37;;;;;;;;;;;;;;;26.25;36.48;94344.66;5044761;28;9097;-60
2022/04/14 04:40:08;;;;;;;;;;;;;;;26.25;36.36;94350.16;5034301;28;9085;-60
2022/04/14 04:42:35;;;;;;;;;;;;;;;26.23;36.98;94349.94;5053901;28;7047;-60
2022/04/14 04:45:01;;;;;;;;;;;;;;;26.23;37.20;94356.19;5045662;28;6920;-60
2022/04/14 04:47:27;;;;;;;;;;;;;;;26.22;36.28;94348.44;5039514;28;7453;-60
2022/04/14 04:49:53;;;;;;;;;;;;;;;26.20;36.07;94351.72;5036736;28;7865;-59
2022/04/14 04:52:19;;;;;;;;;;;;;;;26.19;36.60;94349.47;5039839;28;8723;-60
2022/04/14 04:54:47;;;;;;;;;;;;;;;26.20;36.91;94346.19;5048274;28;6977;-59
2022/04/14 04:57:15;;;;;;;;;;;;;;;26.21;36.86;94352.47;5041128;28;9035;-59
2022/04/14 04:59:41;;;;;;;;;;;;;;;26.21;36.19;94355.22;5044148;28;7170;-59
2022/04/14 05:02:08;;;;;;;;;;;;;;;26.21;36.71;94357.97;5039914;28;7210;-59
2022/04/14 05:04:34;;;;;;;;;;;;;;;26.15;36.56;94349.75;5038916;28;7041;-59
2022/04/14 05:07:02;;;;;;;;;;;;;;;26.17;36.21;94353.47;5033821;28;9100;-60
2022/04/14 05:09:28;;;;;;;;;;;;;;;26.15;37.03;94350.50;5044241;28;9109;-60
2022/04/14 05:11:58;;;;;;;;;;;;;;;26.14;37.12;94349.00;5057838;28;8758;-59
2022/04/14 05:14:29;;;;;;;;;;;;;;;26.17;36.78;94347.97;5036392;28;7074;-59
2022/04/14 05:16:55;;;;;;;;;;;;;;;26.19;36.09;94355.72;5039892;28;9295;-60
2022/04/14 05:19:23;;;;;;;;;;;;;;;26.16;35.96;94351.97;5043386;28;7673;-60
2022/04/14 05:21:49;;;;;;;;;;;;;;;26.19;36.62;94361.22;5040062;28;9126;-60
2022/04/14 05:24:19;;;;;;;;;;;;;;;26.17;36.87;94359.00;5040698;28;7096;-60
2022/04/14 05:26:45;;;;;;;;;;;;;;;26.15;36.39;94371.78;5044876;28;9152;-60
2022/04/14 05:29:10;;;;;;;;;;;;;;;26.12;36.35;94368.06;5040113;28;9157;-60
2022/04/14 05:31:38;;;;;;;;;;;;;;;26.13;35.84;94368.81;5036206;28;7032;-60
2022/04/14 05:34:04;;;;;;;;;;;;;;;26.12;36.56;94372.84;5031071;28;7303;-60
2022/04/14 05:36:30;;;;;;;;;;;;;;;26.09;36.48;94374.63;5036308;28;9037;-60
2022/04/14 05:38:59;;;;;;;;;;;;;;;26.11;35.77;94377.59;5033804;28;7011;-60
2022/04/14 05:41:27;;;;;;;;;;;;;;;26.12;36.39;94370.81;5034752;28;8249;-60
2022/04/14 05:43:58;;;;;;;;;;;;;;;26.11;35.66;94374.09;5033506;28;7264;-60
2022/04/14 05:46:27;;;;;;;;;;;;;;;26.11;36.01;94377.59;5031221;28;7321;-59
2022/04/14 05:48:54;;;;;;;;;;;;;;;26.09;35.48;94374.63;5036609;28;7280;-59
2022/04/14 05:51:21;;;;;;;;;;;;;;;26.09;35.27;94376.63;5038735;28;7159;-60
2022/04/14 05:53:51;;;;;;;;;;;;;;;26.06;35.77;94372.84;5031849;28;7644;-59
2022/04/14 05:56:19;;;;;;;;;;;;;;;26.08;36.31;94373.09;5050161;28;7165;-60
2022/04/14 05:58:46;;;;;;;;;;;;;;;26.11;35.62;94377.59;5051163;28;9203;-60
2022/04/14 06:01:12;;;;;;;;;;;;;;;26.09;36.18;94368.34;5034104;28;9075;-60
2022/04/14 06:03:42;;;;;;;;;;;;;;;26.10;35.54;94370.59;5042506;28;7288;-60
2022/04/14 06:06:16;;;;;;;;;;;;;;;26.09;35.96;94371.84;5037063;28;9323;-60
2022/04/14 06:08:43;;;;;;;;;;;;;;;26.10;35.20;94373.34;5041666;28;9385;-60
2022/04/14 06:11:09;;;;;;;;;;;;;;;26.11;36.18;94366.56;5046509;28;9425;-59
2022/04/14 06:13:37;;;;;;;;;;;;;;;26.09;35.39;94369.09;5032160;28;7300;-60
2022/04/14 06:16:13;;;;;;;;;;;;;;;26.07;36.35;94368.84;5041496;28;7315;-60
2022/04/14 06:18:50;;;;;;;;;;;;;;;26.08;35.72;94372.31;5038714;28;6981;-60
2022/04/14 06:21:16;;;;;;;;;;;;;;;26.06;35.45;94374.84;5055113;28;7052;-60
2022/04/14 06:23:46;;;;;;;;;;;;;;;26.05;35.83;94373.38;5044162;28;7458;-60
2022/04/14 06:26:17;;;;;;;;;;;;;;;26.02;34.98;94375.13;5041861;28;8058;-60
2022/04/14 06:28:49;;;;;;;;;;;;;;;25.99;35.17;94376.16;5038006;28;9093;-60
2022/04/14 06:31:25;;;;;;;;;;;;;;;25.95;34.26;94378.44;5041151;28;9077;-60
2022/04/14 06:33:58;;;;;;;;;;;;;;;25.90;33.79;94373.72;5044086;28;7420;-60
2022/04/14 06:36:25;;;;;;;;;;;;;;;25.88;34.51;94381.75;5044826;28;7926;-60
2022/04/14 06:38:54;;;;;;;;;;;;;;;25.85;33.98;94374.53;5044616;28;7138;-59
2022/04/14 06:41:23;;;;;;;;;;;;;;;25.82;33.22;94372.78;5036478;28;7071;-60
2022/04/14 06:43:51;;;;;;;;;;;;;;;25.80;33.68;94375.31;5046053;28;8762;-59
2022/04/14 06:46:19;;;;;;;;;;;;;;;25.81;33.04;94370.56;5051059;28;7016;-60
2022/04/14 06:48:51;;;;;;;;;;;;;;;25.80;33.41;94367.03;5037145;28;7461;-60
2022/04/14 06:51:43;;;;;;;;;;;;;;;25.77;33.57;94370.84;5047450;28;7017;-60
2022/04/14 06:54:12;;;;;;;;;;;;;;;25.75;33.01;94359.56;5035837;28;8752;-60
2022/04/14 06:56:48;;;;;;;;;;;;;;;25.76;32.84;94371.34;5032971;28;7894;-60
2022/04/14 06:59:24;;;;;;;;;;;;;;;25.71;33.27;94355.63;5034777;28;9093;-60
2022/04/14 07:01:56;;;;;;;;;;;;;;;25.71;33.68;94370.13;5042620;28;9193;-60
2022/04/14 07:04:22;;;;;;;;;;;;;;;25.73;33.63;94373.09;5037288;28;9141;-61
2022/04/14 07:07:02;;;;;;;;;;;;;;;25.76;33.99;94377.59;5039201;28;7246;-61
2022/04/14 07:09:33;;;;;;;;;;;;;;;25.78;33.51;94383.34;5040157;28;9493;-60
2022/04/14 07:12:01;;;;;;;;;;;;;;;25.79;34.21;94370.31;5041898;28;7255;-60
2022/04/14 07:14:28;;;;;;;;;;;;;;;25.80;33.53;94369.81;5032460;28;7235;-60
2022/04/14 07:16:58;;;;;;;;;;;;;;;25.82;34.37;94377.53;5037766;28;7127;-61
2022/04/14 07:19:24;;;;;;;;;;;;;;;25.82;34.62;94378.31;5046857;28;9098;-60
2022/04/14 07:21:53;;;;;;;;;;;;;;;25.83;34.04;94381.81;5040075;28;7239;-61
2022/04/14 07:24:19;;;;;;;;;;;;;;;25.85;34.42;94376.53;5049276;28;9430;-60
2022/04/14 07:27:06;;;;;;;;;;;;;;;25.84;34.50;94389.56;5036640;28;7033;-61
2022/04/14 07:29:32;;;;;;;;;;;;;;;25.87;35.07;94387.78;5034258;28;9889;-60
2022/04/14 07:31:58;;;;;;;;;;;;;;;25.87;35.20;94380.28;5032191;28;6939;-61
2022/04/14 07:34:27;;;;;;;;;;;;;;;25.86;35.07;94378.78;5044331;28;9293;-61
2022/04/14 07:37:02;;;;;;;;;;;;;;;25.91;34.40;94389.00;5044962;28;7244;-60
2022/04/14 07:39:30;;;;;;;;;;;;;;;25.90;34.68;94390.25;5061641;28;7478;-61
2022/04/14 07:41:56;;;;;;;;;;;;;;;25.90;34.67;94392.28;5034542;28;7101;-61
2022/04/14 07:44:21;;;;;;;;;;;;;;;25.92;34.99;94389.75;5045369;28;7353;-60
2022/04/14 07:46:50;;;;;;;;;;;;;;;25.94;34.74;94398.25;5037760;28;6903;-60
2022/04/14 07:49:36;;;;;;;;;;;;;;;25.93;35.02;94389.25;5037082;28;8987;-60
2022/04/14 07:52:02;;;;;;;;;;;;;;;25.91;35.18;94391.75;5057608;28;7377;-61
2022/04/14 07:54:37;;;;;;;;;;;;;;;25.92;35.48;94398.03;5055290;28;7331;-61
2022/04/14 07:57:03;;;;;;;;;;;;;;;25.92;35.11;94396.03;5044111;28;7451;-61
2022/04/14 07:59:32;;;;;;;;;;;;;;;25.93;35.34;94397.50;5042289;28;9526;-61
2022/04/14 08:02:02;;;;;;;;;;;;;;;25.96;36.13;94410.28;5035654;28;7282;-61
2022/04/14 08:04:34;;;;;;;;;;;;;;;25.97;35.96;94409.00;5048494;28;7669;-61
2022/04/14 08:07:04;;;;;;;;;;;;;;;25.97;35.39;94406.25;5040648;28;9477;-61
2022/04/14 08:09:30;;;;;;;;;;;;;;;25.99;35.50;94409.22;5044301;28;7000;-61
2022/04/14 08:12:00;;;;;;;;;;;;;;;26.01;35.32;94417.00;5042145;28;7218;-61
2022/04/14 08:14:26;;;;;;;;;;;;;;;26.01;35.33;94409.47;5039218;28;8772;-60
2022/04/14 08:16:54;;;;;;;;;;;;;;;26.01;35.62;94414.25;5048566;28;9075;-61
2022/04/14 08:19:25;;;;;;;;;;;;;;;25.98;35.53;94407.75;5057388;28;9095;-61
2022/04/14 08:21:52;;;;;;;;;;;;;;;26.03;35.52;94420.72;5049569;28;9114;-61
2022/04/14 08:24:28;;;;;;;;;;;;;;;26.05;36.01;94411.97;5039385;28;7292;-61
2022/04/14 08:26:54;;;;;;;;;;;;;;;26.04;35.53;94424.97;5042681;28;7158;-61
2022/04/14 08:29:23;;;;;;;;;;;;;;;26.07;35.45;94423.22;5046134;28;7221;-60
2022/04/14 08:31:50;;;;;;;;;;;;;;;26.07;36.27;94423.97;5040751;28;7000;-60
2022/04/14 08:34:16;;;;;;;;;;;;;;;26.08;36.60;94424.69;5041113;28;9221;-60
2022/04/14 08:36:46;;;;;;;;;;;;;;;26.09;35.83;94418.72;5039822;28;6997;-60
2022/04/14 08:39:12;;;;;;;;;;;;;;;26.10;36.16;94422.97;5044443;28;9209;-60
2022/04/14 08:41:42;;;;;;;;;;;;;;;26.08;36.58;94419.97;5040833;28;7057;-61
2022/04/14 08:44:13;;;;;;;;;;;;;;;26.09;36.33;94413.22;5057317;28;9420;-60
2022/04/14 08:46:42;;;;;;;;;;;;;;;26.12;35.71;94417.69;5052468;28;7240;-60
2022/04/14 08:49:14;;;;;;;;;;;;;;;26.12;36.24;94420.44;5035955;28;7413;-60
2022/04/14 08:51:42;;;;;;;;;;;;;;;26.12;36.81;94423.19;5044703;28;9335;-61
2022/04/14 08:54:13;;;;;;;;;;;;;;;26.13;36.05;94423.94;5030498;28;9297;-61
2022/04/14 08:56:41;;;;;;;;;;;;;;;26.15;36.45;94421.41;5034404;28;7215;-60
2022/04/14 08:59:13;;;;;;;;;;;;;;;26.16;36.86;94426.41;5040950;28;7175;-61
2022/04/14 09:01:39;;;;;;;;;;;;;;;26.16;36.22;94429.16;5041407;28;8421;-61
2022/04/14 09:04:06;;;;;;;;;;;;;;;26.18;36.49;94425.91;5032811;28;7611;-61
2022/04/14 09:06:32;;;;;;;;;;;;;;;26.19;36.35;94427.41;5039084;28;7035;-61
2022/04/14 09:09:02;;;;;;;;;;;;;;;26.19;36.89;94423.91;5045938;28;7645;-61
2022/04/14 09:11:30;;;;;;;;;;;;;;;26.19;36.38;94421.16;5044761;28;8718;-60
2022/04/14 09:13:59;;;;;;;;;;;;;;;26.20;36.71;94417.13;5037326;28;7291;-61
2022/04/14 09:16:29;;;;;;;;;;;;;;;26.21;36.51;94419.34;5039306;28;6985;-61
2022/04/14 09:19:01;;;;;;;;;;;;;;;26.22;36.71;94425.63;5042045;28;6981;-61
2022/04/14 09:21:27;;;;;;;;;;;;;;;26.22;36.30;94418.09;5034218;28;7729;-61
2022/04/14 09:23:55;;;;;;;;;;;;;;;26.22;36.27;94415.34;5034959;28;8707;-60
2022/04/14 09:26:25;;;;;;;;;;;;;;;26.25;36.56;94413.56;5049742;28;8749;-61
2022/04/14 09:29:10;;;;;;;;;;;;;;;26.25;36.77;94413.56;5033462;28;7239;-61
2022/04/14 09:31:49;;;;;;;;;;;;;;;26.25;36.64;94419.09;5042374;28;7726;-61
2022/04/14 09:34:17;;;;;;;;;;;;;;;26.25;37.21;94410.81;5041362;28;8792;-60
2022/04/14 09:37:07;;;;;;;;;;;;;;;26.26;37.00;94402.03;5038874;28;8332;-61
2022/04/14 09:40:00;;;;;;;;;;;;;;;26.26;36.46;94410.31;5037113;28;7003;-61
2022/04/14 09:42:33;;;;;;;;;;;;;;;26.26;36.24;94406.78;5033192;28;7233;-61
2022/04/14 09:45:22;;;;;;;;;;;;;;;26.25;35.75;94402.56;5038037;28;7126;-61
2022/04/14 09:47:52;;;;;;;;;;;;;;;26.24;36.14;94396.28;5030445;28;9064;-61
2022/04/14 09:50:32;;;;;;;;;;;;;;;26.26;35.41;94401.28;5029445;28;7169;-61
2022/04/14 09:53:12;;;;;;;;;;;;;;;26.26;36.05;94398.50;5027059;28;7296;-61
2022/04/14 09:55:54;;;;;;;;;;;;;;;26.27;35.37;94398.03;5040579;28;9456;-60
2022/04/14 09:58:26;;;;;;;;;;;;;;;26.28;35.79;94396.75;5028362;28;9605;-60
2022/04/14 10:00:57;;;;;;;;;;;;;;;26.29;35.41;94400.25;5042810;28;7684;-61
2022/04/14 10:03:25;;;;;;;;;;;;;;;26.29;35.06;94405.78;5051433;28;9098;-61
2022/04/14 10:05:54;;;;;;;;;;;;;;;26.30;35.38;94398.97;5035587;28;9044;-60
2022/04/14 10:08:22;;;;;;;;;;;;;;;26.28;35.91;94398.75;5035330;28;7103;-61
2022/04/14 10:10:50;;;;;;;;;;;;;;;26.28;35.62;94396.00;5034115;28;7069;-60
2022/04/14 10:13:19;;;;;;;;;;;;;;;26.27;35.53;94389.00;5040684;28;7091;-60
2022/04/14 10:15:48;;;;;;;;;;;;;;;26.25;34.84;94386.75;5038319;28;7493;-61
2022/04/14 10:18:16;;;;;;;;;;;;;;;26.25;34.84;94386.75;5035206;28;7070;-61
2022/04/14 10:20:49;;;;;;;;;;;;;;;26.27;35.64;94394.50;5046942;28;8771;-61
2022/04/14 10:23:16;;;;;;;;;;;;;;;26.25;35.34;94392.28;5028212;28;7209;-60
2022/04/14 10:25:44;;;;;;;;;;;;;;;26.27;35.24;94389.00;5028088;28;9447;-60
2022/04/14 10:28:16;;;;;;;;;;;;;;;26.24;35.09;94385.25;5039826;28;9544;-60
2022/04/14 10:30:46;;;;;;;;;;;;;;;26.23;35.34;94389.25;5041204;28;7077;-60
2022/04/14 10:33:12;;;;;;;;;;;;;;;26.22;35.60;94392.53;5036476;28;9115;-61
2022/04/14 10:35:39;;;;;;;;;;;;;;;26.20;34.96;94389.56;5050841;28;7284;-60
2022/04/14 10:38:12;;;;;;;;;;;;;;;26.20;35.83;94387.56;5033336;28;7228;-61
2022/04/14 10:40:52;;;;;;;;;;;;;;;26.17;35.07;94383.81;5039874;28;7051;-60
2022/04/14 10:43:22;;;;;;;;;;;;;;;26.11;35.57;94372.09;5038683;28;7493;-60
2022/04/14 10:45:54;;;;;;;;;;;;;;;26.15;35.19;94375.31;5029443;28;9092;-60
2022/04/14 10:48:40;;;;;;;;;;;;;;;26.16;35.14;94374.03;5045522;28;7183;-61
2022/04/14 10:51:30;;;;;;;;;;;;;;;26.21;35.40;94380.03;5039767;28;7935;-60
2022/04/14 10:54:03;;;;;;;;;;;;;;;26.22;35.36;94370.47;5037752;28;7364;-60
2022/04/14 10:56:44;;;;;;;;;;;;;;;26.26;36.08;94368.19;5031003;28;7584;-60
2022/04/14 10:59:34;;;;;;;;;;;;;;;26.28;35.18;94368.41;5035852;28;9282;-60
2022/04/14 11:02:04;;;;;;;;;;;;;;;26.31;35.12;94373.66;5034841;28;7012;-60
2022/04/14 11:04:41;;;;;;;;;;;;;;;26.32;35.45;94369.63;5034578;28;7323;-60
2022/04/14 11:07:11;;;;;;;;;;;;;;;26.33;36.06;94371.13;5046693;28;8206;-60
2022/04/14 11:10:00;;;;;;;;;;;;;;;26.35;35.95;94373.38;5041120;28;7246;-60
2022/04/14 11:12:50;;;;;;;;;;;;;;;26.36;35.54;94372.13;5046917;28;9432;-60
2022/04/14 11:15:30;;;;;;;;;;;;;;;26.38;35.41;94366.84;5034520;28;7888;-60
2022/04/14 11:18:06;;;;;;;;;;;;;;;26.40;35.53;94367.06;5049243;28;7514;-60
2022/04/14 11:20:44;;;;;;;;;;;;;;;26.39;36.27;94374.56;5043903;28;7201;-60
2022/04/14 11:23:43;;;;;;;;;;;;;;;26.42;36.46;94373.56;5036773;28;7137;-60
2022/04/14 11:26:11;;;;;;;;;;;;;;;26.41;35.86;94365.78;5056155;28;7453;-60
2022/04/14 11:28:42;;;;;;;;;;;;;;;26.42;36.42;94362.53;5050135;28;7258;-60
2022/04/14 11:31:29;;;;;;;;;;;;;;;26.44;35.73;94364.75;5047550;28;7362;-60
2022/04/14 11:34:06;;;;;;;;;;;;;;;26.43;36.10;94352.97;5040059;28;9291;-61
2022/04/14 11:36:45;;;;;;;;;;;;;;;26.48;36.32;94359.69;5044622;28;9817;-60
2022/04/14 11:39:29;;;;;;;;;;;;;;;26.48;35.84;94354.19;5044255;28;7451;-60
2022/04/14 11:42:03;;;;;;;;;;;;;;;26.51;35.95;94361.44;5037588;28;7158;-60
2022/04/14 11:44:32;;;;;;;;;;;;;;;26.52;35.94;94354.63;5055495;28;7234;-60
2022/04/14 11:47:18;;;;;;;;;;;;;;;26.53;36.56;94361.66;5044895;28;7941;-60
2022/04/14 11:50:21;;;;;;;;;;;;;;;26.56;36.20;94357.84;5050822;28;7506;-60
2022/04/14 11:53:05;;;;;;;;;;;;;;;26.57;36.89;94356.59;4953597;28;7241;-60
2022/04/14 11:55:56;;;;;;;;;;;;;;;26.58;36.84;94350.56;4972019;28;8736;-60
2022/04/14 11:58:22;;;;;;;;;;;;;;;26.60;36.10;94344.53;4947813;28;9348;-59
2022/04/14 12:01:06;;;;;;;;;;;;;;;26.61;36.40;94346.78;4937217;28;7519;-60
2022/04/14 12:03:35;;;;;;;;;;;;;;;26.61;35.81;94351.53;4944020;28;7536;-60
2022/04/14 12:06:14;;;;;;;;;;;;;;;26.61;35.99;94348.78;4952719;28;8966;-60
2022/04/14 12:08:39;;;;;;;;;;;;;;;26.58;35.42;94347.03;4965428;28;8761;-60
2022/04/14 12:11:13;;;;;;;;;;;;;;;26.60;34.92;94344.53;4969905;28;9099;-60
2022/04/14 12:13:40;;;;;;;;;;;;;;;26.58;34.48;94342.28;4968856;28;8718;-60
2022/04/14 12:16:12;;;;;;;;;;;;;;;26.58;34.40;94336.00;4950434;28;8758;-59
2022/04/14 12:19:14;;;;;;;;;;;;;;;26.59;34.58;94338.28;4954667;28;7234;-59
2022/04/14 12:22:02;;;;;;;;;;;;;;;26.61;35.29;94329.47;4932246;29;7274;-60
2022/04/14 12:24:59;;;;;;;;;;;;;;;26.62;35.45;94336.50;4933425;29;8741;-59
2022/04/14 12:27:34;;;;;;;;;;;;;;;26.61;35.62;94332.22;4861672;29;6928;-60
2022/04/14 12:30:08;;;;;;;;;;;;;;;26.59;34.74;94332.75;4893611;29;9125;-60
2022/04/14 12:32:36;;;;;;;;;;;;;;;26.62;35.22;94331.69;4897209;29;8449;-60
2022/04/14 12:35:36;;;;;;;;;;;;;;;26.61;34.98;94337.75;4896376;29;7241;-60
2022/04/14 12:38:25;;;;;;;;;;;;;;;26.62;34.90;94325.44;4898205;29;6999;-60
2022/04/14 12:41:01;;;;;;;;;;;;;;;26.61;34.65;94321.94;4896187;29;9032;-60
2022/04/14 12:43:31;;;;;;;;;;;;;;;26.62;35.00;94333.72;4898155;29;6915;-59
2022/04/14 12:46:37;;;;;;;;;;;;;;;26.62;34.61;94319.94;4894404;29;9003;-60
2022/04/14 12:49:08;;;;;;;;;;;;;;;26.64;34.84;94326.41;4895604;29;7918;-60
2022/04/14 12:52:01;;;;;;;;;;;;;;;26.66;34.78;94323.91;4898861;29;8830;-60
2022/04/14 12:54:54;;;;;;;;;;;;;;;26.68;34.90;94320.63;4898686;29;7177;-60
2022/04/14 12:57:33;;;;;;;;;;;;;;;26.67;35.46;94319.84;4968903;28;7245;-60
2022/04/14 13:00:26;;;;;;;;;;;;;;;26.70;34.99;94320.84;4947291;28;9158;-60
2022/04/14 13:03:14;;;;;;;;;;;;;;;26.71;34.91;94322.31;4970661;28;7243;-61
2022/04/14 13:05:43;;;;;;;;;;;;;;;26.73;34.74;94319.84;5048971;28;7293;-60
2022/04/14 13:08:09;;;;;;;;;;;;;;;26.75;35.16;94320.78;5035861;28;7334;-60
2022/04/14 13:10:38;;;;;;;;;;;;;;;26.78;34.61;94322.53;5043175;28;6871;-60
2022/04/14 13:13:06;;;;;;;;;;;;;;;26.78;35.00;94324.53;5038550;28;6989;-60
2022/04/14 13:15:32;;;;;;;;;;;;;;;26.78;34.86;94317.00;5038065;28;8728;-60
2022/04/14 13:18:04;;;;;;;;;;;;;;;26.79;35.51;94324.03;5035047;28;9219;-60
2022/04/14 13:20:40;;;;;;;;;;;;;;;26.84;34.97;94319.69;5033999;28;7167;-60
2022/04/14 13:23:20;;;;;;;;;;;;;;;26.85;35.59;94321.19;5041881;28;7970;-60
2022/04/14 13:26:00;;;;;;;;;;;;;;;26.88;35.23;94320.88;5058596;28;7527;-60
2022/04/14 13:28:31;;;;;;;;;;;;;;;26.89;34.68;94322.38;5037438;28;6995;-60
2022/04/14 13:31:00;;;;;;;;;;;;;;;26.92;35.57;94320.59;5046685;28;8329;-60